Time;durP1;ratioP1;P1;durP2;ratioP2;P2;SDS_P1;SDS_P2;PMS_P1;PMS_P2;Temp;Humidity;BMP_temperature;BMP_pressure;BME280_temperature;BME280_humidity;BME280_pressure;Samples;Min_cycle;Max_cycle;Signal;HPM_P1;HPM_P2
2021/11/15 00:02:18;;;;;;;98.65;48.72;;;6.60;83.10;;;;;;5058379;28;20043;-39
2021/11/15 00:04:44;;;;;;;84.95;47.28;;;6.70;83.20;;;;;;5058921;28;20045;-38
2021/11/15 00:07:09;;;;;;;98.93;49.47;;;6.60;83.00;;;;;;5058648;28;20190;-39
2021/11/15 00:09:35;;;;;;;96.75;49.50;;;6.70;83.00;;;;;;5058776;28;20033;-41
2021/11/15 00:12:03;;;;;;;100.38;50.63;;;6.70;83.00;;;;;;5057634;28;20037;-41
2021/11/15 00:14:28;;;;;;;98.65;51.50;;;6.70;82.90;;;;;;5058924;28;20055;-37
2021/11/15 00:16:54;;;;;;;92.40;47.60;;;6.70;82.90;;;;;;5058006;28;20361;-37
2021/11/15 00:19:20;;;;;;;85.22;44.97;;;6.70;82.90;;;;;;5058664;28;20032;-38
2021/11/15 00:21:46;;;;;;;86.78;48.05;;;6.70;82.90;;;;;;5058197;28;20086;-37
2021/11/15 00:24:12;;;;;;;101.13;52.88;;;6.70;82.90;;;;;;5058402;28;20033;-40
2021/11/15 00:26:38;;;;;;;79.90;42.83;;;6.70;82.80;;;;;;5057840;28;20029;-37
2021/11/15 00:29:04;;;;;;;92.30;49.25;;;6.70;82.70;;;;;;5058253;28;20114;-40
2021/11/15 00:31:30;;;;;;;95.90;50.55;;;6.70;82.60;;;;;;5057933;28;20049;-40
2021/11/15 00:33:56;;;;;;;87.60;46.58;;;6.70;82.60;;;;;;5058231;28;20043;-37
2021/11/15 00:36:23;;;;;;;88.57;46.65;;;6.70;82.50;;;;;;5057662;28;20123;-38
2021/11/15 00:38:50;;;;;;;88.07;47.42;;;6.70;82.60;;;;;;5058039;28;20025;-40
2021/11/15 00:41:16;;;;;;;87.40;44.88;;;6.70;82.60;;;;;;5057704;28;20036;-40
2021/11/15 00:43:42;;;;;;;90.43;48.08;;;6.70;82.70;;;;;;5057743;28;20135;-39
2021/11/15 00:46:08;;;;;;;86.55;47.38;;;6.70;82.70;;;;;;5057633;28;20351;-37
2021/11/15 00:48:34;;;;;;;90.45;48.42;;;6.70;82.70;;;;;;5057858;28;20045;-38
2021/11/15 00:51:00;;;;;;;91.93;51.83;;;6.70;82.70;;;;;;5057964;28;20029;-38
2021/11/15 00:53:26;;;;;;;87.35;47.00;;;6.70;82.70;;;;;;5057640;28;20025;-37
2021/11/15 00:55:52;;;;;;;89.38;48.72;;;6.70;82.70;;;;;;5057503;28;20436;-38
2021/11/15 00:58:18;;;;;;;73.10;40.20;;;6.70;82.80;;;;;;5057242;28;20029;-37
2021/11/15 01:00:44;;;;;;;93.43;47.42;;;6.70;82.80;;;;;;5057475;28;20041;-39
2021/11/15 01:03:12;;;;;;;94.65;48.17;;;6.70;82.80;;;;;;5057443;28;20096;-37
2021/11/15 01:05:40;;;;;;;88.45;46.42;;;6.70;82.80;;;;;;5057406;28;20341;-37
2021/11/15 01:08:07;;;;;;;87.05;46.45;;;6.70;82.90;;;;;;5057504;28;20025;-38
2021/11/15 01:10:33;;;;;;;81.55;44.38;;;6.70;82.90;;;;;;5057484;28;20037;-41
2021/11/15 01:13:00;;;;;;;109.53;52.83;;;6.70;82.90;;;;;;5057226;28;20421;-38
2021/11/15 01:15:30;;;;;;;86.95;47.55;;;6.70;82.80;;;;;;5057428;28;20040;-38
2021/11/15 01:17:56;;;;;;;88.63;47.55;;;6.70;82.80;;;;;;5056744;28;20036;-40
2021/11/15 01:20:27;;;;;;;98.85;51.35;;;6.70;82.80;;;;;;5057359;28;20033;-37
2021/11/15 01:22:53;;;;;;;86.32;47.35;;;6.70;82.70;;;;;;5055829;28;20342;-39
2021/11/15 01:25:20;;;;;;;98.18;50.47;;;6.70;82.70;;;;;;5057283;28;20148;-40
2021/11/15 01:27:47;;;;;;;82.53;45.28;;;6.80;82.80;;;;;;5056881;28;20029;-37
2021/11/15 01:30:16;;;;;;;84.53;43.42;;;6.80;82.70;;;;;;5057498;28;20028;-37
2021/11/15 01:32:42;;;;;;;83.93;45.45;;;6.80;82.70;;;;;;5056445;28;20037;-40
2021/11/15 01:35:09;;;;;;;93.70;49.00;;;6.80;82.60;;;;;;5057141;28;20176;-39
2021/11/15 01:37:36;;;;;;;81.55;46.15;;;6.80;82.60;;;;;;5056654;28;20037;-37
2021/11/15 01:40:03;;;;;;;87.35;45.10;;;6.80;82.60;;;;;;5057158;28;20033;-37
2021/11/15 01:42:29;;;;;;;81.55;46.97;;;6.80;82.60;;;;;;5056185;28;20136;-40
2021/11/15 01:44:55;;;;;;;82.68;44.30;;;6.80;82.60;;;;;;5057011;28;20119;-39
2021/11/15 01:47:21;;;;;;;91.78;48.20;;;6.80;82.40;;;;;;5056748;28;20029;-39
2021/11/15 01:49:47;;;;;;;93.80;48.88;;;6.80;82.20;;;;;;5056815;28;20063;-38
2021/11/15 01:52:12;;;;;;;96.22;52.03;;;6.80;82.20;;;;;;5056622;28;20032;-39
2021/11/15 01:54:38;;;;;;;94.43;50.30;;;6.80;82.10;;;;;;5056719;28;20024;-40
2021/11/15 01:57:04;;;;;;;93.63;48.95;;;6.80;81.90;;;;;;5056038;28;20135;-38
2021/11/15 01:59:30;;;;;;;102.25;50.97;;;6.80;81.70;;;;;;5055375;28;20029;-41
2021/11/15 02:01:56;;;;;;;104.32;49.88;;;6.80;81.70;;;;;;5056017;28;20041;-38
2021/11/15 02:04:22;;;;;;;107.72;57.03;;;6.80;81.70;;;;;;5056769;28;20021;-37
2021/11/15 02:06:48;;;;;;;103.40;55.88;;;6.80;81.70;;;;;;5056214;28;20036;-40
2021/11/15 02:09:14;;;;;;;107.60;56.53;;;6.70;81.60;;;;;;5056301;28;20036;-40
2021/11/15 02:11:40;;;;;;;105.20;54.00;;;6.70;81.60;;;;;;5056085;28;20104;-40
2021/11/15 02:14:06;;;;;;;107.82;57.03;;;6.70;81.70;;;;;;5056473;28;20368;-41
2021/11/15 02:16:33;;;;;;;121.45;59.55;;;6.70;81.80;;;;;;5055852;28;20443;-39
2021/11/15 02:19:00;;;;;;;112.32;56.88;;;6.70;82.00;;;;;;5056294;28;20051;-39
2021/11/15 02:21:25;;;;;;;109.05;55.75;;;6.60;82.10;;;;;;5056062;28;20061;-39
2021/11/15 02:23:52;;;;;;;108.50;56.83;;;6.60;82.20;;;;;;5055887;28;20079;-39
2021/11/15 02:26:20;;;;;;;99.78;54.95;;;6.60;82.40;;;;;;5055690;28;20043;-39
2021/11/15 02:28:49;;;;;;;118.55;58.35;;;6.60;82.50;;;;;;5055999;28;20033;-41
2021/11/15 02:31:22;;;;;;;110.75;58.83;;;6.60;82.70;;;;;;5055570;28;20116;-39
2021/11/15 02:33:52;;;;;;;107.28;53.58;;;6.60;82.60;;;;;;5055934;28;20055;-38
2021/11/15 02:36:19;;;;;;;107.05;54.42;;;6.60;82.60;;;;;;5055487;28;20033;-38
2021/11/15 02:38:48;;;;;;;98.00;52.78;;;6.60;82.70;;;;;;5055740;28;20040;-42
2021/11/15 02:41:17;;;;;;;110.53;55.00;;;6.60;82.70;;;;;;5056029;28;20037;-38
2021/11/15 02:43:43;;;;;;;98.18;53.67;;;6.60;82.70;;;;;;5055686;28;20073;-40
2021/11/15 02:46:09;;;;;;;98.72;53.00;;;6.60;82.80;;;;;;5055498;28;20363;-38
2021/11/15 02:48:35;;;;;;;109.28;53.83;;;6.60;82.70;;;;;;5055690;28;20183;-39
2021/11/15 02:51:01;;;;;;;105.07;54.08;;;6.60;82.70;;;;;;5055841;28;20068;-37
2021/11/15 02:53:27;;;;;;;94.50;50.42;;;6.60;82.70;;;;;;5055515;28;20033;-37
2021/11/15 02:55:53;;;;;;;103.93;53.85;;;6.60;82.70;;;;;;5055881;28;20405;-41
2021/11/15 02:58:19;;;;;;;105.63;53.63;;;6.60;82.60;;;;;;5055389;28;20029;-41
2021/11/15 03:00:57;;;;;;;97.07;51.97;;;6.60;82.70;;;;;;5055766;28;20099;-38
2021/11/15 03:03:24;;;;;;;90.28;49.17;;;6.60;82.70;;;;;;5055194;28;20025;-39
2021/11/15 03:05:51;;;;;;;88.57;50.38;;;6.60;83.10;;;;;;5055550;28;20325;-41
2021/11/15 03:08:19;;;;;;;94.75;50.20;;;6.70;82.50;;;;;;5055153;28;20029;-38
2021/11/15 03:10:46;;;;;;;90.45;49.63;;;6.70;82.30;;;;;;5055487;28;20077;-39
2021/11/15 03:13:14;;;;;;;95.32;51.90;;;6.70;82.30;;;;;;5055494;28;20053;-38
2021/11/15 03:15:44;;;;;;;101.38;53.05;;;6.70;82.20;;;;;;5055703;28;20037;-38
2021/11/15 03:18:16;;;;;;;91.15;51.42;;;6.70;82.20;;;;;;5055507;28;20025;-38
2021/11/15 03:20:46;;;;;;;90.78;49.47;;;6.60;82.10;;;;;;5055473;28;20405;-40
2021/11/15 03:23:19;;;;;;;88.45;47.83;;;6.70;82.00;;;;;;5055103;28;20037;-38
2021/11/15 03:25:46;;;;;;;98.30;52.13;;;6.70;81.90;;;;;;5055306;28;20341;-39
2021/11/15 03:28:15;;;;;;;90.63;49.05;;;6.60;81.90;;;;;;5055286;28;20050;-39
2021/11/15 03:30:43;;;;;;;88.60;47.03;;;6.70;82.00;;;;;;5055386;28;20112;-38
2021/11/15 03:33:09;;;;;;;98.78;52.63;;;6.70;82.00;;;;;;5054985;28;20413;-38
2021/11/15 03:35:36;;;;;;;94.13;48.10;;;6.60;81.80;;;;;;5055473;28;20056;-38
2021/11/15 03:38:02;;;;;;;91.75;48.72;;;6.60;81.90;;;;;;5055185;28;20024;-37
2021/11/15 03:40:28;;;;;;;87.28;46.92;;;6.60;81.90;;;;;;5055287;28;20362;-37
2021/11/15 03:42:58;;;;;;;79.05;43.25;;;6.60;81.80;;;;;;5054789;28;20389;-38
2021/11/15 03:45:26;;;;;;;84.32;44.13;;;6.70;81.80;;;;;;5055450;28;20040;-37
2021/11/15 03:47:52;;;;;;;79.60;44.50;;;6.60;81.60;;;;;;5058235;28;20060;-37
2021/11/15 03:50:18;;;;;;;88.18;45.08;;;6.60;81.50;;;;;;5059096;28;20025;-37
2021/11/15 03:52:45;;;;;;;81.45;42.65;;;6.60;81.30;;;;;;5059026;28;20325;-39
2021/11/15 03:55:15;;;;;;;73.45;39.03;;;6.60;81.10;;;;;;5059175;28;20028;-38
2021/11/15 03:57:41;;;;;;;75.72;40.45;;;6.60;80.90;;;;;;5058522;28;20117;-38
2021/11/15 04:00:10;;;;;;;72.15;39.30;;;6.60;80.80;;;;;;5059147;28;20059;-40
2021/11/15 04:02:37;;;;;;;76.65;43.10;;;6.60;80.60;;;;;;5058362;28;20036;-39
2021/11/15 04:05:04;;;;;;;72.93;39.05;;;6.60;80.60;;;;;;5058576;28;20033;-39
2021/11/15 04:07:37;;;;;;;68.43;39.72;;;6.60;80.70;;;;;;5058399;28;20398;-37
2021/11/15 04:10:08;;;;;;;76.50;38.25;;;6.60;80.80;;;;;;5058854;28;20033;-40
2021/11/15 04:12:34;;;;;;;73.50;38.90;;;6.60;80.80;;;;;;5058191;28;20044;-40
2021/11/15 04:15:00;;;;;;;77.53;39.97;;;6.60;80.70;;;;;;5058242;28;20461;-39
2021/11/15 04:17:26;;;;;;;69.78;38.30;;;6.60;80.70;;;;;;5057124;28;20106;-38
2021/11/15 04:19:53;;;;;;;65.93;37.40;;;6.60;80.80;;;;;;5058697;28;20017;-38
2021/11/15 04:22:19;;;;;;;72.25;39.63;;;6.60;80.90;;;;;;5058214;28;20321;-41
2021/11/15 04:24:45;;;;;;;74.32;40.83;;;6.60;80.80;;;;;;5058018;28;20036;-40
2021/11/15 04:27:12;;;;;;;69.18;37.88;;;6.60;80.80;;;;;;5058244;28;20033;-38
2021/11/15 04:29:37;;;;;;;70.30;37.42;;;6.70;80.70;;;;;;5058457;28;20035;-40
2021/11/15 04:32:05;;;;;;;67.93;37.03;;;6.70;80.60;;;;;;5057971;28;20033;-37
2021/11/15 04:34:31;;;;;;;69.45;39.15;;;6.70;80.40;;;;;;5058393;28;20032;-40
2021/11/15 04:36:57;;;;;;;63.72;37.88;;;6.70;80.40;;;;;;5057655;28;20036;-37
2021/11/15 04:39:22;;;;;;;65.97;37.58;;;6.70;80.40;;;;;;5058299;28;20397;-38
2021/11/15 04:41:48;;;;;;;67.47;37.35;;;6.70;80.30;;;;;;5057341;28;20302;-40
2021/11/15 04:44:14;;;;;;;61.20;35.30;;;6.70;80.20;;;;;;5058222;28;20029;-39
2021/11/15 04:46:40;;;;;;;65.55;35.30;;;6.70;80.30;;;;;;5057719;28;20027;-38
2021/11/15 04:49:06;;;;;;;63.50;35.88;;;6.70;80.20;;;;;;5058190;28;20372;-39
2021/11/15 04:51:31;;;;;;;58.60;33.70;;;6.80;80.10;;;;;;5057353;28;20094;-38
2021/11/15 04:53:57;;;;;;;66.70;36.33;;;6.80;80.20;;;;;;5057729;28;20033;-38
2021/11/15 04:56:23;;;;;;;69.55;36.88;;;6.80;80.10;;;;;;5057257;28;20067;-40
2021/11/15 04:58:50;;;;;;;73.20;37.45;;;6.80;80.10;;;;;;5056205;28;20425;-37
2021/11/15 05:01:16;;;;;;;67.25;34.72;;;6.80;80.10;;;;;;5057416;28;20048;-37
2021/11/15 05:03:42;;;;;;;66.07;34.88;;;6.80;79.90;;;;;;5057575;28;20025;-38
2021/11/15 05:06:08;;;;;;;68.93;34.67;;;6.80;79.80;;;;;;5057251;28;20102;-40
2021/11/15 05:08:34;;;;;;;66.35;34.03;;;6.80;79.90;;;;;;5057392;28;20028;-38
2021/11/15 05:10:59;;;;;;;78.05;37.67;;;6.80;79.90;;;;;;5057422;28;20036;-37
2021/11/15 05:13:25;;;;;;;61.70;31.80;;;6.80;79.80;;;;;;5057035;28;20052;-37
2021/11/15 05:15:51;;;;;;;62.28;33.25;;;6.90;79.70;;;;;;5056935;28;20440;-38
2021/11/15 05:18:17;;;;;;;58.88;32.70;;;6.90;79.60;;;;;;5056792;28;20039;-40
2021/11/15 05:20:43;;;;;;;65.75;30.92;;;6.90;79.50;;;;;;5057153;28;20413;-37
2021/11/15 05:23:09;;;;;;;57.35;29.42;;;6.90;79.60;;;;;;5056683;28;20371;-40
2021/11/15 05:25:35;;;;;;;58.40;28.60;;;6.90;79.60;;;;;;5056847;28;20044;-38
2021/11/15 05:28:01;;;;;;;53.53;28.30;;;6.90;79.50;;;;;;5056879;28;20029;-41
2021/11/15 05:30:26;;;;;;;56.70;28.35;;;6.90;79.40;;;;;;5056674;28;20033;-40
2021/11/15 05:32:55;;;;;;;58.28;29.77;;;6.90;79.30;;;;;;5056704;28;20032;-38
2021/11/15 05:35:22;;;;;;;53.67;28.85;;;7.00;79.20;;;;;;5056691;28;20107;-37
2021/11/15 05:37:50;;;;;;;59.08;30.77;;;7.00;79.00;;;;;;5056275;28;20028;-40
2021/11/15 05:40:18;;;;;;;55.83;27.42;;;7.00;79.00;;;;;;5057125;28;20051;-37
2021/11/15 05:42:44;;;;;;;52.03;28.92;;;7.00;79.00;;;;;;5056079;28;20148;-39
2021/11/15 05:45:11;;;;;;;57.10;29.10;;;7.00;78.80;;;;;;5056987;28;20110;-37
2021/11/15 05:47:38;;;;;;;49.03;26.55;;;7.10;78.90;;;;;;5056330;28;20025;-40
2021/11/15 05:50:05;;;;;;;54.15;28.92;;;7.10;78.70;;;;;;5056827;28;20033;-40
2021/11/15 05:52:31;;;;;;;55.35;28.52;;;7.10;78.60;;;;;;5056614;28;20578;-37
2021/11/15 05:54:57;;;;;;;58.10;28.83;;;7.10;78.40;;;;;;5056633;28;20056;-40
2021/11/15 05:57:22;;;;;;;47.78;25.65;;;7.10;78.20;;;;;;5054899;28;20032;-38
2021/11/15 05:59:48;;;;;;;49.80;26.20;;;7.10;78.00;;;;;;5056486;28;20087;-39
2021/11/15 06:02:15;;;;;;;52.95;26.10;;;7.10;77.90;;;;;;5044576;28;20042;-40
2021/11/15 06:04:41;;;;;;;47.55;26.40;;;7.10;77.90;;;;;;5036452;28;20125;-36
2021/11/15 06:07:06;;;;;;;48.13;26.30;;;7.10;77.70;;;;;;5036049;28;20501;-39
2021/11/15 06:09:32;;;;;;;55.20;27.55;;;7.10;77.70;;;;;;5043769;28;20305;-39
2021/11/15 06:11:58;;;;;;;59.40;31.15;;;7.10;77.80;;;;;;5055162;28;20025;-40
2021/11/15 06:14:24;;;;;;;56.40;31.15;;;7.10;77.80;;;;;;5055664;28;20041;-39
2021/11/15 06:16:50;;;;;;;50.67;27.15;;;7.20;77.90;;;;;;5051956;28;20025;-40
2021/11/15 06:19:15;;;;;;;46.13;25.90;;;7.20;78.00;;;;;;5054075;28;20385;-40
2021/11/15 06:21:41;;;;;;;49.58;26.95;;;7.20;77.90;;;;;;5055511;28;20028;-37
2021/11/15 06:24:07;;;;;;;47.83;26.73;;;7.20;77.70;;;;;;5054258;28;20491;-37
2021/11/15 06:26:33;;;;;;;60.47;29.60;;;7.20;77.60;;;;;;5055186;28;20425;-41
2021/11/15 06:28:58;;;;;;;55.10;28.98;;;7.20;77.50;;;;;;5055889;28;20417;-40
2021/11/15 06:31:25;;;;;;;58.17;28.83;;;7.20;77.30;;;;;;5054847;28;20033;-36
2021/11/15 06:33:52;;;;;;;51.95;27.20;;;7.30;77.40;;;;;;5055545;28;20086;-38
2021/11/15 06:36:18;;;;;;;49.58;26.95;;;7.20;77.20;;;;;;5054813;28;20040;-37
2021/11/15 06:38:45;;;;;;;52.45;28.05;;;7.30;77.20;;;;;;5055761;28;20344;-38
2021/11/15 06:41:11;;;;;;;57.53;27.80;;;7.30;77.20;;;;;;5055174;28;20082;-37
2021/11/15 06:43:37;;;;;;;74.20;30.52;;;7.30;77.20;;;;;;5054321;28;20044;-39
2021/11/15 06:46:02;;;;;;;69.85;33.08;;;7.30;77.10;;;;;;5055405;28;20082;-37
2021/11/15 06:48:30;;;;;;;56.42;29.90;;;7.30;77.10;;;;;;5055111;28;20036;-39
2021/11/15 06:50:56;;;;;;;59.10;29.90;;;7.40;77.10;;;;;;5055436;28;20025;-41
2021/11/15 06:53:22;;;;;;;67.05;33.50;;;7.40;77.10;;;;;;5055031;28;20462;-40
2021/11/15 06:55:48;;;;;;;65.20;34.28;;;7.40;77.00;;;;;;5055134;28;20321;-37
2021/11/15 06:58:13;;;;;;;52.28;28.08;;;7.40;77.00;;;;;;5054926;28;20047;-39
2021/11/15 07:00:39;;;;;;;54.25;27.92;;;7.50;77.00;;;;;;5055059;28;20021;-36
2021/11/15 07:03:05;;;;;;;48.20;26.90;;;7.50;76.80;;;;;;5054823;28;20108;-36
2021/11/15 07:05:31;;;;;;;50.40;27.98;;;7.50;76.60;;;;;;5055079;28;20033;-35
2021/11/15 07:07:57;;;;;;;51.65;27.92;;;7.50;76.40;;;;;;5055210;28;20028;-36
2021/11/15 07:10:23;;;;;;;51.92;29.20;;;7.60;76.40;;;;;;5054808;28;20111;-40
2021/11/15 07:12:51;;;;;;;50.35;27.02;;;7.60;76.20;;;;;;5054626;28;20029;-37
2021/11/15 07:15:18;;;;;;;56.72;29.10;;;7.60;76.10;;;;;;5055407;28;20029;-37
2021/11/15 07:17:46;;;;;;;47.22;27.20;;;7.60;76.00;;;;;;5054667;28;20099;-41
2021/11/15 07:20:12;;;;;;;52.13;28.08;;;7.60;75.90;;;;;;5054722;28;20060;-37
2021/11/15 07:22:38;;;;;;;51.67;27.20;;;7.60;75.70;;;;;;5057409;28;20454;-37
2021/11/15 07:25:05;;;;;;;53.47;28.08;;;7.60;75.70;;;;;;5059337;28;20057;-37
2021/11/15 07:27:30;;;;;;;54.03;28.05;;;7.60;75.70;;;;;;5058496;28;20040;-39
2021/11/15 07:29:56;;;;;;;49.35;26.23;;;7.60;75.70;;;;;;5058822;28;20025;-36
2021/11/15 07:32:23;;;;;;;49.70;28.33;;;7.60;75.60;;;;;;5058131;28;20033;-39
2021/11/15 07:34:48;;;;;;;57.50;31.30;;;7.60;75.50;;;;;;5059060;28;20427;-38
2021/11/15 07:37:14;;;;;;;49.45;28.48;;;7.60;75.50;;;;;;5058299;28;20029;-38
2021/11/15 07:39:42;;;;;;;48.85;27.58;;;7.70;75.60;;;;;;5059107;28;20048;-40
2021/11/15 07:42:18;;;;;;;48.70;28.13;;;7.70;75.60;;;;;;5058193;28;20049;-37
2021/11/15 07:44:45;;;;;;;56.22;29.70;;;7.70;75.50;;;;;;5058996;28;20041;-37
2021/11/15 07:47:14;;;;;;;54.08;28.33;;;7.70;75.50;;;;;;5058298;28;20037;-41
2021/11/15 07:49:40;;;;;;;53.13;27.90;;;7.70;75.20;;;;;;5058918;28;20071;-37
2021/11/15 07:52:06;;;;;;;49.58;26.45;;;7.70;75.10;;;;;;5057835;28;20029;-37
2021/11/15 07:54:33;;;;;;;53.15;27.05;;;7.70;74.90;;;;;;5058721;28;20033;-41
2021/11/15 07:57:00;;;;;;;42.72;26.00;;;7.70;74.70;;;;;;5057949;28;20436;-37
2021/11/15 07:59:25;;;;;;;49.88;26.98;;;7.70;74.50;;;;;;5059077;28;20467;-38
2021/11/15 08:01:51;;;;;;;48.75;26.45;;;7.80;74.50;;;;;;5057928;28;20029;-37
2021/11/15 08:04:17;;;;;;;54.75;29.88;;;7.70;74.40;;;;;;5058255;28;20029;-40
2021/11/15 08:06:43;;;;;;;53.72;28.98;;;7.80;74.50;;;;;;5057848;28;20108;-36
2021/11/15 08:09:09;;;;;;;56.97;28.17;;;7.80;74.40;;;;;;5058549;28;20033;-40
2021/11/15 08:11:37;;;;;;;50.45;26.98;;;7.80;74.30;;;;;;5057947;28;20060;-37
2021/11/15 08:14:03;;;;;;;49.60;26.77;;;7.80;74.20;;;;;;5057929;28;20061;-37
2021/11/15 08:16:30;;;;;;;51.65;28.17;;;7.80;74.00;;;;;;5057461;28;20036;-37
2021/11/15 08:18:56;;;;;;;42.95;24.48;;;7.80;74.10;;;;;;5058036;28;20059;-37
2021/11/15 08:21:23;;;;;;;47.13;27.60;;;7.80;74.30;;;;;;5057426;28;20048;-38
2021/11/15 08:23:50;;;;;;;53.20;27.65;;;7.90;74.10;;;;;;5057949;28;20025;-41
2021/11/15 08:26:37;;;;;;;45.60;25.90;;;7.90;74.00;;;;;;5057457;28;20037;-41
2021/11/15 08:29:12;;;;;;;58.05;30.52;;;7.90;74.00;;;;;;5058298;28;20029;-37
2021/11/15 08:31:39;;;;;;;52.13;25.80;;;8.00;74.10;;;;;;5056897;28;20065;-37
2021/11/15 08:34:06;;;;;;;52.03;26.33;;;8.00;74.20;;;;;;5057566;28;20032;-41
2021/11/15 08:36:32;;;;;;;47.42;25.17;;;8.00;74.00;;;;;;5056802;28;20041;-40
2021/11/15 08:39:06;;;;;;;46.45;25.67;;;8.10;73.90;;;;;;5057803;28;20440;-39
2021/11/15 08:41:38;;;;;;;47.10;25.08;;;8.10;73.50;;;;;;5057632;28;20441;-39
2021/11/15 08:44:08;;;;;;;47.85;25.48;;;8.20;73.50;;;;;;5057686;28;20061;-40
2021/11/15 08:46:35;;;;;;;45.72;24.60;;;8.20;73.40;;;;;;5057248;28;20057;-37
2021/11/15 08:49:04;;;;;;;49.13;25.30;;;8.20;73.10;;;;;;5057640;28;20131;-36
2021/11/15 08:51:30;;;;;;;43.60;23.63;;;8.30;73.50;;;;;;5057201;28;20024;-40
2021/11/15 08:53:57;;;;;;;40.30;22.83;;;8.30;72.90;;;;;;5057769;28;20029;-40
2021/11/15 08:56:23;;;;;;;56.53;30.02;;;8.40;72.60;;;;;;5056847;28;20090;-40
2021/11/15 08:58:49;;;;;;;43.70;22.83;;;8.50;72.50;;;;;;5057368;28;20055;-36
2021/11/15 09:01:16;;;;;;;58.75;30.20;;;8.50;71.90;;;;;;5056934;28;20051;-40
2021/11/15 09:03:43;;;;;;;49.22;25.63;;;8.50;71.80;;;;;;5057235;28;20057;-40
2021/11/15 09:06:10;;;;;;;44.75;25.15;;;8.60;71.20;;;;;;5056910;28;20307;-38
2021/11/15 09:08:41;;;;;;;48.47;25.00;;;8.60;70.60;;;;;;5057131;28;20318;-36
2021/11/15 09:11:07;;;;;;;46.60;23.10;;;8.60;70.50;;;;;;5056751;28;20435;-38
2021/11/15 09:13:35;;;;;;;41.88;24.83;;;8.60;70.50;;;;;;5041632;28;20041;-37
2021/11/15 09:16:00;;;;;;;34.80;20.98;;;8.60;70.30;;;;;;5043566;28;20099;-39
2021/11/15 09:18:27;;;;;;;40.72;24.23;;;8.70;69.90;;;;;;5056682;28;20041;-36
2021/11/15 09:20:54;;;;;;;40.17;22.58;;;8.70;69.80;;;;;;5040795;28;20366;-36
2021/11/15 09:23:19;;;;;;;42.75;24.02;;;8.70;69.90;;;;;;5036887;28;20089;-40
2021/11/15 09:25:45;;;;;;;49.45;25.35;;;8.70;69.70;;;;;;5036991;28;20370;-40
2021/11/15 09:28:11;;;;;;;37.33;21.83;;;8.80;69.70;;;;;;5036389;28;20026;-38
2021/11/15 09:30:39;;;;;;;41.95;22.20;;;8.80;69.60;;;;;;5036644;28;20033;-36
2021/11/15 09:33:06;;;;;;;34.15;20.17;;;8.80;69.20;;;;;;5036538;28;20108;-36
2021/11/15 09:35:33;;;;;;;44.15;22.58;;;8.80;68.90;;;;;;5036409;28;20034;-38
2021/11/15 09:37:58;;;;;;;36.38;20.45;;;8.80;69.00;;;;;;5036284;28;20018;-39
2021/11/15 09:40:24;;;;;;;48.63;25.58;;;8.80;68.50;;;;;;5036540;28;20116;-37
2021/11/15 09:42:53;;;;;;;33.78;19.70;;;8.90;68.30;;;;;;5034948;28;20438;-39
2021/11/15 09:45:19;;;;;;;36.72;21.33;;;8.90;68.00;;;;;;5035318;28;20045;-39
2021/11/15 09:47:45;;;;;;;35.13;20.10;;;8.90;67.90;;;;;;5036301;28;20322;-37
2021/11/15 09:50:14;;;;;;;33.72;17.10;;;8.90;67.90;;;;;;5036571;28;20469;-39
2021/11/15 09:52:40;;;;;;;31.10;16.40;;;8.90;67.30;;;;;;5036514;28;20362;-38
2021/11/15 09:55:06;;;;;;;29.98;17.38;;;9.00;67.10;;;;;;5036823;28;20037;-37
2021/11/15 09:57:41;;;;;;;28.13;16.40;;;9.00;66.60;;;;;;5035925;28;20053;-39
2021/11/15 10:00:20;;;;;;;30.75;16.75;;;9.00;66.00;;;;;;5036696;28;20029;-37
2021/11/15 10:02:46;;;;;;;23.63;14.27;;;9.10;65.70;;;;;;5035765;28;20436;-39
2021/11/15 10:05:12;;;;;;;22.58;14.65;;;9.10;65.70;;;;;;5036395;28;20116;-39
2021/11/15 10:07:43;;;;;;;25.85;15.40;;;9.20;65.50;;;;;;5035829;28;20406;-36
2021/11/15 10:10:41;;;;;;;29.92;18.45;;;9.20;64.90;;;;;;5036536;28;20034;-37
2021/11/15 10:13:19;;;;;;;26.35;15.05;;;9.30;65.00;;;;;;5035547;28;20497;-37
2021/11/15 10:15:50;;;;;;;39.80;20.58;;;9.30;64.90;;;;;;5036082;28;20131;-37
2021/11/15 10:18:34;;;;;;;29.98;16.17;;;9.30;65.30;;;;;;5035702;28;20034;-40
2021/11/15 10:21:05;;;;;;;27.65;17.35;;;9.40;64.70;;;;;;5035751;28;20116;-38
2021/11/15 10:23:45;;;;;;;26.33;15.85;;;9.40;64.70;;;;;;5035787;28;20120;-37
2021/11/15 10:26:23;;;;;;;23.08;13.38;;;9.50;64.50;;;;;;5034248;28;20355;-37
2021/11/15 10:28:56;;;;;;;31.27;17.63;;;9.50;64.20;;;;;;5036204;28;20100;-41
2021/11/15 10:31:33;;;;;;;22.92;14.65;;;9.50;63.80;;;;;;5035151;28;20026;-37
2021/11/15 10:33:59;;;;;;;25.25;13.88;;;9.50;63.80;;;;;;5035758;28;20516;-36
2021/11/15 10:36:49;;;;;;;26.70;15.18;;;9.60;63.50;;;;;;5035293;28;20033;-41
2021/11/15 10:39:18;;;;;;;21.15;13.13;;;9.60;63.20;;;;;;5036165;28;20044;-37
2021/11/15 10:41:55;;;;;;;26.83;15.40;;;9.70;63.40;;;;;;5035170;28;20030;-37
2021/11/15 10:44:20;;;;;;;20.60;12.15;;;9.70;63.00;;;;;;5036156;28;20068;-37
2021/11/15 10:46:50;;;;;;;23.65;13.25;;;9.80;63.00;;;;;;5035546;28;20433;-40
2021/11/15 10:49:19;;;;;;;21.15;12.38;;;9.80;62.80;;;;;;5036023;28;20128;-39
2021/11/15 10:51:49;;;;;;;23.52;12.75;;;9.80;62.60;;;;;;5035522;28;20033;-37
2021/11/15 10:54:27;;;;;;;24.58;14.85;;;9.80;62.30;;;;;;5035831;28;20037;-37
2021/11/15 10:56:55;;;;;;;47.28;17.95;;;9.80;62.20;;;;;;5034925;28;20038;-37
2021/11/15 10:59:22;;;;;;;19.58;12.20;;;9.90;62.30;;;;;;5035860;28;20037;-37
2021/11/15 11:01:48;;;;;;;30.45;13.07;;;9.90;61.80;;;;;;5034100;28;20018;-41
2021/11/15 11:04:22;;;;;;;22.38;13.57;;;9.90;61.40;;;;;;5034742;28;20329;-37
2021/11/15 11:07:16;;;;;;;23.05;12.75;;;9.90;61.50;;;;;;5034930;28;20022;-37
2021/11/15 11:09:44;;;;;;;22.27;13.85;;;9.90;61.20;;;;;;5034013;28;20041;-40
2021/11/15 11:12:14;;;;;;;23.63;14.70;;;9.90;61.40;;;;;;5035080;28;20063;-40
2021/11/15 11:14:42;;;;;;;22.92;14.38;;;10.00;61.30;;;;;;5035626;28;20042;-39
2021/11/15 11:17:08;;;;;;;25.23;14.20;;;10.00;61.20;;;;;;5035143;28;20061;-40
2021/11/15 11:20:04;;;;;;;27.15;16.92;;;10.10;61.20;;;;;;5035631;28;20373;-37
2021/11/15 11:23:15;;;;;;;27.02;16.15;;;10.20;61.40;;;;;;5035172;28;20025;-40
2021/11/15 11:25:28;;;;;;;27.00;15.15;;;10.30;61.80;;;;;;5033675;28;20133;-41
2021/11/15 11:27:56;;;;;;;22.85;14.02;;;10.40;61.50;;;;;;5034774;28;20037;-37
2021/11/15 11:30:21;;;;;;;23.67;14.38;;;10.40;61.50;;;;;;5035405;28;20026;-37
2021/11/15 11:32:51;;;;;;;26.45;14.30;;;10.50;61.30;;;;;;5034992;28;20025;-39
2021/11/15 11:35:17;;;;;;;25.38;13.77;;;10.60;60.90;;;;;;5035761;28;20260;-41
2021/11/15 11:37:43;;;;;;;20.92;13.50;;;10.60;60.50;;;;;;5035257;28;20045;-36
2021/11/15 11:40:09;;;;;;;22.90;13.65;;;10.70;60.20;;;;;;5035455;28;20026;-38
2021/11/15 11:42:34;;;;;;;26.52;14.93;;;10.70;60.10;;;;;;5034804;28;20430;-37
2021/11/15 11:45:06;;;;;;;24.27;14.13;;;10.70;59.70;;;;;;5035442;28;20041;-41
2021/11/15 11:47:32;;;;;;;25.65;13.93;;;10.70;59.70;;;;;;5034913;28;20326;-41
2021/11/15 11:49:59;;;;;;;28.95;14.50;;;10.70;59.70;;;;;;5034697;28;20045;-40
2021/11/15 11:52:28;;;;;;;24.80;13.38;;;10.60;59.60;;;;;;5034726;28;20025;-37
2021/11/15 11:54:54;;;;;;;23.15;13.77;;;10.60;59.70;;;;;;5035049;28;20071;-52
2021/11/15 11:57:32;;;;;;;26.25;13.68;;;10.60;59.70;;;;;;5034688;28;20022;-37
2021/11/15 12:00:04;;;;;;;21.45;13.68;;;10.60;59.70;;;;;;5032881;28;20037;-39
2021/11/15 12:02:32;;;;;;;20.67;13.38;;;10.50;59.30;;;;;;5034517;28;20110;-39
2021/11/15 12:05:05;;;;;;;27.05;14.15;;;10.50;59.90;;;;;;5035000;28;20073;-37
2021/11/15 12:07:51;;;;;;;30.33;15.10;;;10.50;58.90;;;;;;5035649;28;20310;-37
2021/11/15 12:10:43;;;;;;;21.20;12.65;;;10.40;58.60;;;;;;5038482;28;20056;-40
2021/11/15 12:13:11;;;;;;;24.17;13.10;;;10.40;58.80;;;;;;5038270;28;20292;-39
2021/11/15 12:15:50;;;;;;;21.30;13.43;;;10.40;58.90;;;;;;5038083;28;20048;-39
2021/11/15 12:18:20;;;;;;;25.02;14.32;;;10.50;59.10;;;;;;5038182;28;20045;-40
2021/11/15 12:21:04;;;;;;;27.23;14.73;;;10.50;59.10;;;;;;5037781;28;20028;-40
2021/11/15 12:23:50;;;;;;;26.83;15.98;;;10.50;59.20;;;;;;5037895;28;20068;-40
2021/11/15 12:26:23;;;;;;;32.10;16.52;;;10.60;59.30;;;;;;5040752;28;20330;-40
2021/11/15 12:29:02;;;;;;;27.40;15.32;;;10.60;59.50;;;;;;5053117;28;20042;-40
2021/11/15 12:31:48;;;;;;;25.55;16.00;;;10.50;59.20;;;;;;5037848;28;20021;-37
2021/11/15 12:34:16;;;;;;;24.30;14.68;;;10.50;59.30;;;;;;5036567;28;20037;-37
2021/11/15 12:36:47;;;;;;;29.15;14.85;;;10.40;59.40;;;;;;5036988;28;20044;-36
2021/11/15 12:39:23;;;;;;;24.73;16.05;;;10.30;59.40;;;;;;5037897;28;20029;-37
2021/11/15 12:41:51;;;;;;;26.08;15.10;;;10.20;59.50;;;;;;5037152;28;20109;-36